03:56
Airports
History
Links
Donate
Help keep this website running!
PayPal
Bitcoin
This page is community maintained. The information is intended for PC simulator navigation or reference.
Always use approved charts for navigation.
1R5
Cameron Airstrip
Cameron Airstrip (1R5)
Cameron, Louisiana, United States (70631)
4
Lat/Lng:29° 48' 11.8" N / 93° 20' 4.55" W
29.803277 / -93.334598
Elevation:5'ft / 2mMSL
ID / ICAO:1R5
Runways:1
Longest:14-32
Grass 724m / 2,376ft
Nearby Weather03:53 GMT 2017-10-17
Nearby weather at KLCH, Lake Charles Rgnl located 23.3 nautical miles from 1R5
Altimeter: 30.23
Visibility: 10.0 statute miles
Wind: 11 knots (from 030°)
Temp: 17°c / 63°f
Humidity: 51.7%

METAR: KLCH 170353Z AUTO 03011KT 10SM CLR 17/07 A3023 RMK AO2 SLP244 T01720067

(Powered by phpweather)
Nearby VORs <50NM
Nearby NDBs
Runway 14 / 32
Dimensions:724.2 x 25.9m 2376' x 85'ft
Surface:Grass
Edge Lights:Low intensity
Runway 14 [A]Runway 32 [B]
Heading:144°TH 324°TH
Lat:
Lng:
29° 48' 21.42"N
93° 20' 12.32"W
29° 48' 2.17"N
93° 19' 56.79"W
User Notes and Comments
29° 48' 11.8" N / 93° 20' 4.55" W
Distance To
Airport ID:
Nearby Airports
(U) Southland Field 22.8 NM
KUXL N 353°
(C) Lake Charles Rgnl 23.3 NM
KLCH ( WX ) NNE 16°
(R) Open A-1 Ranch 25.8 NM
3LA8 NNE 26°
(R) Morgan Crop Service Nr 2 27.7 NM
3LA6 NNE 33°
4 Nunez 30.4 NM
LA12 E 98°
(C) Chennault Intl 30.4 NM
KCWF ( WX ) NNE 22°
(R) Little Pecan Island 32.0 NM
3LA4 E 90°
VFR Chart
Flight Planning at SkyVector.com